Weather reports worldwide

Advertisment
East malling, United Kingdom (99008): temperature & dewpoint: 03.04.2020 10:00:00 - 09.04.2020 10:00:00 (BST)East malling, United Kingdom (99008): temperature -20cm: 03.04.2020 10:00:00 - 09.04.2020 10:00:00 (BST)East malling, United Kingdom (99008): wind speed: 03.04.2020 10:00:00 - 09.04.2020 10:00:00 (BST)East malling, United Kingdom (99008): wind direction: 03.04.2020 10:00:00 - 09.04.2020 10:00:00 (BST)East malling, United Kingdom (99008): reduced air pressure: 03.04.2020 10:00:00 - 09.04.2020 10:00:00 (BST)East malling, United Kingdom (99008): sunshine duration: 03.04.2020 10:00:00 - 09.04.2020 10:00:00 (BST)East malling, United Kingdom (99008): precipitation: 03.04.2020 10:00:00 - 09.04.2020 10:00:00 (BST)
Date & Time tt [°C] td [°C] tt -20cm [°C] ff [km/h] ff [kn] dd ppp [hPa] sd [min] rr [mm]
09.04.2020 10:00:00 15,0 9,6 10,9 4 2 N 1025,6 60 0,0
09.04.2020 09:00:00 11,2 9,6 - 4 2 NW 1025,3 54 0,0
09.04.2020 08:00:00 7,9 7,9 - 2 1 W 1025,1 42 0,0
09.04.2020 07:00:00 5,8 5,6 - 0 0 N 1024,9 0 0,0
09.04.2020 06:00:00 5,0 4,4 - 4 2 WSW 1024,5 0 0,0
09.04.2020 05:00:00 6,2 5,8 - 4 2 WNW 1024,4 0 0,0
09.04.2020 04:00:00 6,3 5,7 - 4 2 W 1024,3 0 0,0
09.04.2020 03:00:00 6,7 6,1 - 5 3 W 1024,0 0 0,0
09.04.2020 02:00:00 6,8 6,1 - 4 2 NW 1024,2 0 0,0
09.04.2020 01:00:00 7,7 6,3 - 4 2 S 1024,2 - 0,0
09.04.2020 00:00:00 8,1 6,7 - 4 2 W 1024,6 0 0,0
08.04.2020 23:00:00 8,8 7,0 - 4 2 NW 1024,4 0 0,0
08.04.2020 22:00:00 10,2 7,4 - 2 1 NW 1024,2 0 0,0
08.04.2020 21:00:00 12,0 8,0 - 4 2 N 1024,1 0 0,0
08.04.2020 20:00:00 15,1 8,8 - 5 3 ENE 1023,5 0 0,0
08.04.2020 19:00:00 16,2 9,0 - 9 5 ENE 1023,2 0 0,0
08.04.2020 18:00:00 17,9 9,4 - 11 6 ENE 1023,1 12 0,0
08.04.2020 17:00:00 19,3 10,0 - 11 6 NE 1022,9 18 0,0
08.04.2020 16:00:00 20,4 9,8 - 15 8 NE 1023,1 60 0,0
08.04.2020 15:00:00 21,1 10,6 - 8 4 E 1023,5 60 0,0
08.04.2020 14:00:00 20,0 9,6 - 13 7 E 1023,9 60 0,0
08.04.2020 13:00:00 19,4 10,4 - 15 8 ENE 1024,3 60 0,0
08.04.2020 12:00:00 17,9 9,4 - 13 7 NE 1024,9 60 0,0
08.04.2020 11:00:00 16,5 8,9 - 11 6 N 1025,2 60 0,0
08.04.2020 10:00:00 14,6 8,5 10,2 8 4 N 1025,0 60 0,0
08.04.2020 09:00:00 12,6 8,5 - 5 3 N 1025,2 42 0,0
08.04.2020 08:00:00 9,7 7,8 - 4 2 NNW 1025,3 0 0,0
08.04.2020 07:00:00 8,3 6,7 - 4 2 NW 1025,1 0 0,0
08.04.2020 06:00:00 8,0 6,4 - 4 2 NW 1025,0 0 0,0
08.04.2020 05:00:00 8,9 6,9 - 5 3 NNW 1025,4 0 0,0
08.04.2020 04:00:00 9,1 7,3 - 4 2 NW 1025,4 0 0,0
08.04.2020 03:00:00 9,0 7,1 - 5 3 NW 1026,0 0 0,0
08.04.2020 02:00:00 8,9 7,0 - 5 3 NW 1026,5 0 0,0
08.04.2020 01:00:00 8,2 6,5 - 4 2 WNW 1027,1 - 0,0
08.04.2020 00:00:00 7,7 6,0 - 4 2 WNW 1027,2 0 0,0
07.04.2020 23:00:00 8,4 6,0 - 4 2 WNW 1027,4 0 0,0
07.04.2020 22:00:00 9,6 5,8 - 4 2 WNW 1027,7 0 0,0
07.04.2020 21:00:00 12,0 5,8 - 4 2 E 1027,7 0 0,0
07.04.2020 20:00:00 13,6 7,0 - 8 4 E 1027,5 0 0,0
07.04.2020 19:00:00 16,4 2,8 - 5 3 SSE 1027,1 42 0,0
07.04.2020 18:00:00 17,2 2,6 - 8 4 SE 1027,3 42 0,0
07.04.2020 17:00:00 17,3 1,8 - 11 6 SE 1027,6 60 0,0
07.04.2020 16:00:00 17,3 3,3 - 13 7 SE 1028,0 60 0,0
07.04.2020 15:00:00 16,8 3,3 - 15 8 SE 1028,7 60 0,0
07.04.2020 14:00:00 17,3 5,9 - 15 8 SSE 1028,9 54 0,0
07.04.2020 13:00:00 17,5 6,3 - 11 6 E 1029,1 48 0,0
07.04.2020 12:00:00 16,2 4,8 - 15 8 SE 1029,8 48 0,0
07.04.2020 11:00:00 16,2 5,2 - 13 7 ESE 1030,1 60 0,0
07.04.2020 10:00:00 13,6 6,6 9,0 4 2 N 1030,4 60 0,0
07.04.2020 09:00:00 9,5 6,1 - 2 1 NW 1030,4 60 0,0
07.04.2020 08:00:00 6,2 6,0 - 2 1 W 1030,3 60 0,0
07.04.2020 07:00:00 2,4 2,0 - 2 1 SW 1029,9 0 0,0
07.04.2020 06:00:00 1,8 1,3 - 0 0 N 1029,7 0 0,0
07.04.2020 05:00:00 2,3 1,6 - 0 0 N 1029,4 0 0,0
07.04.2020 04:00:00 3,2 2,4 - 0 0 N 1028,9 0 0,0
07.04.2020 03:00:00 3,5 2,6 - 2 1 W 1028,5 0 0,0
07.04.2020 02:00:00 4,9 4,0 - 4 2 SSW 1028,1 0 0,0
07.04.2020 01:00:00 5,6 4,3 - 2 1 SW 1027,7 - 0,0
07.04.2020 00:00:00 5,9 4,4 - 2 1 SSE 1027,0 0 0,0
06.04.2020 23:00:00 7,8 5,1 - 8 4 SSW 1026,3 0 0,0
06.04.2020 22:00:00 10,0 5,0 - 5 3 S 1025,8 0 0,0
06.04.2020 21:00:00 12,3 5,3 - 9 5 WSW 1024,8 0 0,0
06.04.2020 20:00:00 13,3 5,9 - 11 6 SW 1023,7 0 0,0
06.04.2020 19:00:00 14,2 6,2 - 13 7 SW 1022,5 12 0,0
06.04.2020 18:00:00 15,5 6,6 - 18 10 WSW 1021,3 12 0,0
06.04.2020 17:00:00 16,7 2,5 - 15 8 W 1020,3 12 0,0
06.04.2020 16:00:00 16,9 2,7 - 16 9 WSW 1019,6 12 0,0
06.04.2020 15:00:00 16,5 4,0 - 13 7 W 1019,3 18 0,0
06.04.2020 14:00:00 15,8 4,4 - 16 9 WNW 1018,7 48 0,0
06.04.2020 13:00:00 14,7 9,1 - 15 8 W 1017,9 24 0,0
06.04.2020 12:00:00 12,8 9,7 - 11 6 WNW 1017,2 0 0,0
06.04.2020 11:00:00 14,2 10,1 - 11 6 WSW 1016,1 0 0,0
06.04.2020 10:00:00 13,5 9,4 9,7 11 6 SW 1015,2 0 0,0
06.04.2020 09:00:00 12,6 8,0 - 4 2 S 1014,3 0 0,0
06.04.2020 08:00:00 10,4 7,6 - 4 2 S 1013,6 6 0,0
06.04.2020 07:00:00 8,9 6,0 - 4 2 SSE 1012,7 0 0,0
06.04.2020 06:00:00 8,9 5,5 - 8 4 SE 1012,1 0 0,0
06.04.2020 05:00:00 7,6 4,5 - 2 1 SE 1011,8 0 0,0
06.04.2020 04:00:00 9,2 3,2 - 8 4 SSW 1011,5 0 0,0
06.04.2020 03:00:00 8,7 4,2 - 8 4 S 1011,2 0 0,0
06.04.2020 02:00:00 8,2 3,7 - 2 1 NNW 1011,2 0 0,0
06.04.2020 01:00:00 12,4 3,1 - 5 3 S 1011,3 - 0,0
06.04.2020 00:00:00 12,9 4,2 - 9 5 S 1011,3 0 0,0
05.04.2020 23:00:00 13,3 4,3 - 8 4 SSE 1011,6 0 0,0
05.04.2020 22:00:00 13,4 3,8 - 5 3 SE 1011,8 0 0,0
05.04.2020 21:00:00 15,0 4,0 - 11 6 SSE 1011,7 0 0,0
05.04.2020 20:00:00 16,7 3,7 - 13 7 SSE 1011,6 24 0,0
05.04.2020 19:00:00 18,4 3,6 - 13 7 SSE 1011,8 60 0,0
05.04.2020 18:00:00 19,4 3,7 - 22 12 S 1012,0 60 0,0
05.04.2020 17:00:00 19,5 3,7 - 21 11 SSE 1012,1 60 0,0
05.04.2020 16:00:00 19,2 3,9 - 21 11 SSE 1012,7 60 0,0
05.04.2020 15:00:00 18,5 4,5 - 18 10 SSE 1013,4 60 0,0
05.04.2020 14:00:00 18,1 5,6 - 16 9 SE 1014,0 60 0,0
05.04.2020 13:00:00 18,0 5,1 - 16 9 SSE 1014,6 60 0,0
05.04.2020 12:00:00 16,7 2,8 - 21 11 S 1015,2 60 0,0
05.04.2020 11:00:00 15,3 4,5 - 16 9 SSE 1015,6 60 0,0
05.04.2020 10:00:00 13,0 4,6 8,2 15 8 SSE 1016,2 60 0,0
05.04.2020 09:00:00 11,5 4,5 - 15 8 SSE 1016,6 60 0,0
05.04.2020 08:00:00 9,7 3,4 - 15 8 SSE 1016,8 60 0,0
05.04.2020 07:00:00 7,3 3,7 - 9 5 SSE 1017,0 6 0,0
05.04.2020 06:00:00 4,0 1,0 - 0 0 N 1017,2 0 0,0
05.04.2020 05:00:00 7,5 2,1 - 5 3 SSE 1017,3 0 0,0
05.04.2020 04:00:00 8,1 2,3 - 8 4 SSE 1017,9 0 0,0
05.04.2020 03:00:00 8,8 2,6 - 13 7 SSE 1018,3 0 0,0
05.04.2020 02:00:00 9,2 3,2 - 13 7 SSE 1018,9 0 0,0
05.04.2020 01:00:00 9,8 3,1 - 15 8 SSE 1019,4 - 0,0
05.04.2020 00:00:00 10,3 3,4 - 11 6 SE 1019,5 0 0,0
04.04.2020 23:00:00 8,6 3,4 - 8 4 SE 1019,7 0 0,0
04.04.2020 22:00:00 8,3 3,3 - 5 3 SE 1020,0 0 0,0
04.04.2020 21:00:00 7,5 2,9 - 5 3 SE 1020,0 0 0,0
04.04.2020 20:00:00 10,5 2,5 - 5 3 SSE 1019,9 30 0,0
04.04.2020 19:00:00 12,9 1,0 - 11 6 SSE 1019,6 60 0,0
04.04.2020 18:00:00 13,9 -0,1 - 13 7 SSE 1019,8 60 0,0
04.04.2020 17:00:00 14,3 0,8 - 16 9 SSE 1019,9 60 0,0
04.04.2020 16:00:00 14,5 2,1 - 16 9 SSE 1020,1 60 0,0
04.04.2020 15:00:00 14,5 2,4 - 13 7 S 1020,7 60 0,0
04.04.2020 14:00:00 14,0 2,6 - 18 10 S 1020,9 60 0,0
04.04.2020 13:00:00 13,7 3,7 - 16 9 S 1021,2 60 0,0
04.04.2020 12:00:00 12,7 6,7 - 13 7 SSW 1021,7 60 0,0
04.04.2020 11:00:00 10,4 7,7 - 11 6 S 1022,2 42 0,0
04.04.2020 10:00:00 6,7 6,6 7,5 8 4 S 1022,3 0 0,0
04.04.2020 09:00:00 5,4 5,3 - 9 5 S 1022,1 0 0,0
04.04.2020 08:00:00 4,5 4,4 - 9 5 S 1021,8 0 0,0
04.04.2020 07:00:00 3,7 3,7 - 4 2 SSW 1021,5 0 0,0
04.04.2020 06:00:00 1,1 1,0 - 2 1 WSW 1021,1 0 0,0
04.04.2020 05:00:00 0,6 0,2 - 2 1 SW 1021,1 0 0,0
04.04.2020 04:00:00 1,1 0,7 - 4 2 SSW 1020,9 0 0,0
04.04.2020 03:00:00 1,4 1,0 - 4 2 SSW 1020,8 0 0,0
04.04.2020 02:00:00 1,6 1,1 - 4 2 SW 1020,7 0 0,0
04.04.2020 01:00:00 2,4 1,8 - 2 1 S 1020,5 - 0,0
04.04.2020 00:00:00 2,6 1,6 - 2 1 SW 1020,3 0 0,0
03.04.2020 23:00:00 3,9 2,4 - 2 1 S 1019,9 0 0,0
03.04.2020 22:00:00 5,2 2,4 - 4 2 E 1019,8 0 0,0
03.04.2020 21:00:00 6,7 2,5 - 5 3 E 1019,7 0 0,0
03.04.2020 20:00:00 8,3 1,5 - 8 4 SSW 1019,1 18 0,0
03.04.2020 19:00:00 11,4 2,0 - 0 0 N 1018,8 6 0,0
03.04.2020 18:00:00 11,7 1,7 - 5 3 WNW 1018,6 6 0,0
03.04.2020 17:00:00 12,0 1,9 - 8 4 W 1018,4 0 0,0
03.04.2020 16:00:00 11,8 1,8 - 11 6 W 1018,3 6 0,0
03.04.2020 15:00:00 11,3 1,4 - 9 5 W 1018,5 18 0,0
03.04.2020 14:00:00 10,6 1,7 - 9 5 WNW 1018,6 0 0,0
03.04.2020 13:00:00 10,1 2,2 - 11 6 W 1018,5 0 0,0
03.04.2020 12:00:00 10,2 1,8 - 11 6 SSW 1018,4 18 0,0
03.04.2020 11:00:00 10,5 0,5 - 5 3 NNW 1018,2 6 0,0
03.04.2020 10:00:00 9,4 1,0 8,0 2 1 N 1017,9 0 0,0

tt = temperature
td = dewpoint
tt -20cm = temperature -20cm
ff = wind speed
dd = wind direction
ppp = reduced air pressure
sd = sunshine duration
rr = precipitation

Next stations